Time;durP1;ratioP1;P1;durP2;ratioP2;P2;SDS_P1;SDS_P2;PMS_P1;PMS_P2;Temp;Humidity;BMP_temperature;BMP_pressure;BME280_temperature;BME280_humidity;BME280_pressure;Samples;Min_cycle;Max_cycle;Signal;HPM_P1;HPM_P2
2022/06/14 00:01:32;;;;;;;13.30;4.00;;;11.70;99.90;;;;;;5020421;28;20050;-59
2022/06/14 00:03:58;;;;;;;11.60;3.92;;;11.60;99.90;;;;;;5019016;28;20054;-59
2022/06/14 00:06:30;;;;;;;14.25;3.75;;;11.80;99.90;;;;;;5020927;28;20056;-59
2022/06/14 00:08:56;;;;;;;17.45;4.00;;;11.90;99.90;;;;;;5017957;28;20037;-59
2022/06/14 00:11:26;;;;;;;9.85;3.60;;;11.90;99.90;;;;;;5020424;28;20071;-58
2022/06/14 00:13:54;;;;;;;9.93;3.80;;;11.70;99.90;;;;;;5019220;28;20091;-59
2022/06/14 00:16:21;;;;;;;11.77;4.57;;;11.90;99.90;;;;;;5019556;28;20045;-59
2022/06/14 00:18:47;;;;;;;14.07;4.55;;;11.80;99.90;;;;;;5020132;28;20109;-59
2022/06/14 00:21:13;;;;;;;17.73;4.70;;;11.90;99.90;;;;;;5018948;28;20101;-60
2022/06/14 00:23:39;;;;;;;12.88;3.92;;;11.80;99.90;;;;;;5020568;28;20088;-59
2022/06/14 00:26:05;;;;;;;16.33;4.90;;;11.80;99.90;;;;;;5018646;28;20073;-58
2022/06/14 00:28:33;;;;;;;12.55;4.60;;;11.60;99.90;;;;;;5020216;28;20049;-59
2022/06/14 00:31:03;;;;;;;14.57;4.60;;;11.80;99.90;;;;;;5019200;28;20066;-58
2022/06/14 00:33:29;;;;;;;11.57;4.25;;;11.90;99.90;;;;;;5019497;28;20054;-59
2022/06/14 00:36:01;;;;;;;10.65;4.47;;;11.90;99.90;;;;;;5020189;28;20643;-59
2022/06/14 00:38:27;;;;;;;12.63;4.10;;;11.80;99.90;;;;;;5018289;28;20034;-58
2022/06/14 00:40:55;;;;;;;15.52;4.90;;;11.80;99.90;;;;;;5020105;28;20061;-59
2022/06/14 00:43:21;;;;;;;13.60;4.40;;;11.80;99.90;;;;;;5018243;28;20046;-58
2022/06/14 00:45:48;;;;;;;13.05;4.45;;;11.80;99.90;;;;;;5019667;28;20097;-59
2022/06/14 00:48:31;;;;;;;12.65;4.50;;;11.60;99.90;;;;;;5019052;28;20050;-58
2022/06/14 00:51:08;;;;;;;11.13;4.47;;;11.70;99.90;;;;;;5018460;28;20041;-59
2022/06/14 00:54:10;;;;;;;12.85;4.10;;;11.60;99.90;;;;;;5020034;28;20116;-60
2022/06/14 00:57:01;;;;;;;19.27;5.30;;;11.70;99.90;;;;;;4997528;28;20115;-60
2022/06/14 00:59:38;;;;;;;16.38;4.75;;;11.60;99.90;;;;;;5018574;28;20046;-59
2022/06/14 01:02:14;;;;;;;13.93;4.43;;;11.60;99.90;;;;;;5002241;28;20053;-59
2022/06/14 01:04:41;;;;;;;11.57;4.75;;;11.60;99.90;;;;;;5018130;28;20045;-59
2022/06/14 01:07:21;;;;;;;14.48;4.85;;;11.50;99.90;;;;;;5019817;28;20038;-58
2022/06/14 01:09:52;;;;;;;13.98;4.93;;;11.40;99.90;;;;;;5019026;28;20049;-59
2022/06/14 01:12:25;;;;;;;12.55;4.40;;;11.50;99.90;;;;;;5018452;28;20041;-59
2022/06/14 01:15:00;;;;;;;12.80;5.07;;;11.10;99.90;;;;;;5019497;28;20077;-59
2022/06/14 01:17:26;;;;;;;17.70;5.00;;;11.20;99.90;;;;;;5017991;28;20045;-59
2022/06/14 01:19:52;;;;;;;16.30;4.88;;;11.20;99.90;;;;;;5020119;28;20112;-59
2022/06/14 01:22:18;;;;;;;11.70;4.95;;;11.30;99.90;;;;;;5022664;28;20049;-59
2022/06/14 01:24:44;;;;;;;14.52;4.35;;;11.30;99.90;;;;;;5023020;28;20053;-59
2022/06/14 01:27:15;;;;;;;12.35;4.95;;;11.30;99.90;;;;;;5023258;28;20050;-59
2022/06/14 01:29:45;;;;;;;14.15;4.85;;;11.10;99.90;;;;;;5022138;28;20456;-58
2022/06/14 01:32:13;;;;;;;11.70;4.18;;;11.20;99.90;;;;;;5005995;28;20042;-59
2022/06/14 01:34:47;;;;;;;17.10;5.82;;;11.20;99.90;;;;;;5021725;28;20057;-58
2022/06/14 01:37:13;;;;;;;13.48;5.07;;;11.20;99.90;;;;;;5023183;28;20057;-58
2022/06/14 01:39:39;;;;;;;14.82;5.18;;;11.20;99.90;;;;;;5022313;28;20037;-59
2022/06/14 01:42:14;;;;;;;14.77;4.55;;;11.10;99.90;;;;;;5022670;28;20048;-58
2022/06/14 01:44:51;;;;;;;13.60;4.95;;;11.10;99.90;;;;;;5005435;28;20061;-58
2022/06/14 01:47:39;;;;;;;14.52;5.22;;;11.00;99.90;;;;;;5021604;28;20046;-59
2022/06/14 01:53:29;;;;;;;13.93;5.30;;;10.80;99.90;;;;;;5023098;28;20069;-58
2022/06/14 01:56:07;;;;;;;17.85;5.32;;;10.80;99.90;;;;;;5021356;28;20057;-59
2022/06/14 01:58:43;;;;;;;12.20;4.95;;;10.90;99.90;;;;;;5022814;28;20049;-59
2022/06/14 02:01:25;;;;;;;15.13;5.47;;;11.00;99.90;;;;;;5022336;28;20089;-58
2022/06/14 02:07:14;;;;;;;13.57;4.57;;;10.90;99.90;;;;;;5022695;28;20517;-58
2022/06/14 02:09:59;;;;;;;17.25;4.57;;;10.90;99.90;;;;;;5022156;28;20049;-58
2022/06/14 02:13:01;;;;;;;17.70;5.18;;;10.90;99.90;;;;;;5021182;28;20583;-59
2022/06/14 02:16:05;;;;;;;14.85;4.97;;;10.90;99.90;;;;;;4987869;28;20133;-59
2022/06/14 02:18:44;;;;;;;12.82;5.05;;;10.80;99.90;;;;;;5022438;28;20038;-58
2022/06/14 02:21:25;;;;;;;14.15;4.45;;;10.80;99.90;;;;;;5020731;28;20045;-60
2022/06/14 02:24:16;;;;;;;11.63;5.05;;;10.80;99.90;;;;;;5003075;28;20042;-59
2022/06/14 02:26:50;;;;;;;13.32;4.70;;;10.80;99.90;;;;;;5002085;28;20046;-58
2022/06/14 02:29:21;;;;;;;13.75;4.68;;;10.80;99.90;;;;;;5001847;28;20038;-59
2022/06/14 02:31:58;;;;;;;13.02;5.07;;;10.70;99.90;;;;;;5002036;28;20049;-58
2022/06/14 02:34:36;;;;;;;14.60;4.95;;;10.70;99.90;;;;;;5000878;28;20048;-58
2022/06/14 02:37:17;;;;;;;16.42;5.07;;;10.70;99.90;;;;;;5002788;28;20084;-58
2022/06/14 02:39:51;;;;;;;14.10;5.03;;;10.70;99.90;;;;;;5001847;28;20061;-58
2022/06/14 02:42:23;;;;;;;12.65;4.78;;;10.80;99.90;;;;;;5001516;28;20046;-58
2022/06/14 02:44:55;;;;;;;;;;;10.70;99.90;;;;;;5003029;28;20046;-59
2022/06/14 02:47:50;;;;;;;15.68;4.85;;;10.70;99.90;;;;;;5000808;28;19922;-59
2022/06/14 02:50:35;;;;;;;19.02;5.57;;;10.70;99.90;;;;;;5001819;28;20049;-59
2022/06/14 02:53:03;;;;;;;11.82;5.28;;;10.60;99.90;;;;;;5002503;28;20077;-60
2022/06/14 02:55:37;;;;;;;15.85;4.47;;;10.60;99.90;;;;;;5000435;28;20054;-59
2022/06/14 02:58:19;;;;;;;12.07;5.03;;;10.70;99.90;;;;;;5002565;28;20042;-59
2022/06/14 03:00:52;;;;;;;15.32;5.22;;;10.70;99.90;;;;;;5000793;28;20046;-58
2022/06/14 03:03:27;;;;;;;14.75;5.03;;;10.50;99.90;;;;;;5001781;28;20043;-59
2022/06/14 03:06:04;;;;;;;14.75;4.55;;;10.70;99.90;;;;;;5002347;28;20043;-59
2022/06/14 03:09:02;;;;;;;15.50;4.85;;;10.70;99.90;;;;;;5000192;28;20035;-59
2022/06/14 03:11:46;;;;;;;14.00;4.38;;;10.60;99.90;;;;;;4994454;28;20121;-58
2022/06/14 03:14:54;;;;;;;13.07;4.20;;;10.60;99.90;;;;;;5001495;28;20054;-59
2022/06/14 03:17:45;;;;;;;11.63;4.72;;;10.70;99.90;;;;;;5000232;28;20144;-59
2022/06/14 03:20:11;;;;;;;11.43;4.22;;;10.70;99.90;;;;;;5001238;28;20073;-58
2022/06/14 03:23:20;;;;;;;12.73;4.50;;;10.70;99.90;;;;;;5012238;28;20050;-59
2022/06/14 03:25:55;;;;;;;15.10;5.10;;;10.70;99.90;;;;;;5019238;28;20521;-60
2022/06/14 03:28:32;;;;;;;11.82;4.43;;;10.70;99.90;;;;;;5021264;28;20046;-59
2022/06/14 03:31:10;;;;;;;13.85;4.82;;;10.70;99.90;;;;;;5002547;28;20473;-59
2022/06/14 03:33:38;;;;;;;11.55;4.68;;;10.80;99.90;;;;;;5020155;28;20571;-59
2022/06/14 03:36:06;;;;;;;12.70;5.47;;;10.80;99.90;;;;;;5021360;28;20045;-60
2022/06/14 03:38:36;;;;;;;14.00;5.05;;;10.80;99.90;;;;;;5019386;28;20101;-60
2022/06/14 03:41:04;;;;;;;12.93;4.93;;;10.80;99.90;;;;;;5021250;28;20065;-59
2022/06/14 03:43:32;;;;;;;15.02;5.50;;;10.80;99.90;;;;;;5019475;28;20053;-59
2022/06/14 03:46:11;;;;;;;14.98;5.18;;;10.70;99.90;;;;;;5020476;28;20073;-58
2022/06/14 03:48:39;;;;;;;12.00;4.53;;;10.70;99.90;;;;;;5020836;28;20049;-58
2022/06/14 03:51:11;;;;;;;14.85;5.20;;;10.70;99.90;;;;;;5019302;28;20041;-59
2022/06/14 03:54:01;;;;;;;13.68;5.45;;;10.80;99.90;;;;;;5020981;28;20082;-59
2022/06/14 03:57:06;;;;;;;15.38;4.88;;;10.80;99.90;;;;;;5019565;28;20046;-59
2022/06/14 04:00:04;;;;;;;17.00;4.88;;;10.70;99.90;;;;;;5017691;28;20050;-58
2022/06/14 04:02:55;;;;;;;11.43;5.13;;;10.80;99.90;;;;;;5011584;28;20057;-58
2022/06/14 04:05:48;;;;;;;13.50;4.90;;;10.80;99.90;;;;;;5019827;28;20053;-58
2022/06/14 04:08:40;;;;;;;13.98;4.63;;;10.80;99.90;;;;;;5018910;28;20046;-59
2022/06/14 04:11:26;;;;;;;16.70;4.97;;;10.80;99.90;;;;;;5020538;28;20057;-59
2022/06/14 04:14:19;;;;;;;12.82;5.18;;;10.90;99.90;;;;;;5002285;28;20058;-59
2022/06/14 04:16:52;;;;;;;14.40;5.43;;;10.90;99.90;;;;;;5018694;28;20062;-59
2022/06/14 04:20:09;;;;;;;13.43;5.22;;;10.90;99.90;;;;;;5020560;28;20413;-59
2022/06/14 04:22:48;;;;;;;13.63;4.88;;;10.90;99.90;;;;;;4965270;28;20097;-58
2022/06/14 04:25:40;;;;;;;11.93;4.90;;;11.00;99.90;;;;;;5018738;28;20053;-58
2022/06/14 04:28:06;;;;;;;;;;;11.10;99.90;;;;;;5020788;28;20084;-60
2022/06/14 04:30:40;;;;;;;13.70;4.65;;;11.10;99.90;;;;;;5018869;28;19922;-58
2022/06/14 04:33:31;;;;;;;14.55;5.05;;;11.20;99.90;;;;;;5019615;28;20046;-59
2022/06/14 04:36:06;;;;;;;11.82;4.78;;;11.20;99.90;;;;;;5020281;28;20609;-59
2022/06/14 04:38:48;;;;;;;11.35;4.40;;;11.20;99.90;;;;;;5018377;28;20046;-58
2022/06/14 04:41:22;;;;;;;17.08;4.47;;;11.40;99.90;;;;;;5020110;28;20037;-57
2022/06/14 04:43:53;;;;;;;11.82;5.07;;;11.50;99.90;;;;;;5018990;28;20045;-59
2022/06/14 04:47:08;;;;;;;15.85;5.25;;;11.50;99.90;;;;;;5019013;28;20042;-59
2022/06/14 04:49:36;;;;;;;16.17;5.47;;;11.60;99.90;;;;;;5016639;28;20054;-58
2022/06/14 04:52:27;;;;;;;15.20;4.85;;;11.60;99.90;;;;;;5000958;28;20046;-59
2022/06/14 04:55:02;;;;;;;12.15;4.00;;;11.60;99.90;;;;;;5018563;28;20062;-59
2022/06/14 04:57:43;;;;;;;12.75;4.90;;;11.50;99.90;;;;;;5019957;28;20049;-59
2022/06/14 05:00:15;;;;;;;10.18;4.40;;;11.40;99.90;;;;;;5018179;28;20065;-58
2022/06/14 05:02:49;;;;;;;13.00;4.85;;;11.50;99.90;;;;;;5019822;28;20108;-59
2022/06/14 05:05:20;;;;;;;13.73;4.45;;;11.50;99.90;;;;;;5019168;28;20058;-58
2022/06/14 05:07:52;;;;;;;14.30;4.80;;;11.60;99.90;;;;;;5018355;28;20597;-58
2022/06/14 05:10:34;;;;;;;10.85;3.97;;;11.70;99.90;;;;;;5019809;28;20042;-58
2022/06/14 05:13:05;;;;;;;;;;;11.70;99.90;;;;;;5018438;28;20054;-58
2022/06/14 05:15:39;;;;;;;14.20;4.30;;;11.70;99.90;;;;;;5019421;28;20377;-58
2022/06/14 05:18:35;;;;;;;11.55;4.38;;;11.80;99.90;;;;;;5001024;28;20140;-58
2022/06/14 05:21:27;;;;;;;11.40;4.53;;;11.90;99.90;;;;;;5017785;28;20061;-60
2022/06/14 05:23:54;;;;;;;13.45;4.72;;;11.90;99.90;;;;;;4982403;28;20070;-60
2022/06/14 05:26:38;;;;;;;14.02;5.43;;;11.90;99.90;;;;;;4998975;28;20049;-59
2022/06/14 05:29:06;;;;;;;13.48;4.05;;;12.10;99.90;;;;;;4998953;28;20057;-59
2022/06/14 05:31:54;;;;;;;12.55;4.68;;;12.10;99.90;;;;;;4999900;28;20162;-60
2022/06/14 05:35:21;;;;;;;13.98;5.35;;;12.20;99.90;;;;;;4998089;28;20102;-58
2022/06/14 05:37:58;;;;;;;12.45;5.18;;;12.20;99.90;;;;;;4927757;29;20060;-59
2022/06/14 05:40:49;;;;;;;12.23;4.65;;;12.30;99.90;;;;;;4992034;28;20166;-59
2022/06/14 05:43:32;;;;;;;13.57;4.85;;;12.30;99.90;;;;;;4998086;28;20438;-59
2022/06/14 05:46:08;;;;;;;9.90;4.45;;;12.30;99.90;;;;;;4999174;28;20074;-59
2022/06/14 05:48:43;;;;;;;14.10;4.72;;;12.30;99.90;;;;;;4999425;28;20042;-58
2022/06/14 05:51:12;;;;;;;13.40;5.55;;;12.30;99.90;;;;;;4998014;28;20034;-59
2022/06/14 05:54:08;;;;;;;11.93;4.60;;;12.40;99.90;;;;;;4999713;28;20386;-60
2022/06/14 05:56:46;;;;;;;12.73;4.25;;;12.40;99.90;;;;;;4961108;28;20046;-59
2022/06/14 05:59:24;;;;;;;10.90;4.72;;;12.30;99.90;;;;;;4998542;28;20042;-59
2022/06/14 06:01:58;;;;;;;14.13;4.88;;;12.50;99.90;;;;;;4999820;28;20057;-58
2022/06/14 06:04:33;;;;;;;14.23;4.68;;;12.50;99.90;;;;;;4997817;28;20049;-59
2022/06/14 06:07:06;;;;;;;10.65;4.32;;;12.70;99.90;;;;;;5000458;28;20037;-59
2022/06/14 06:09:44;;;;;;;13.25;4.85;;;12.80;99.90;;;;;;5002244;28;20053;-58
2022/06/14 06:12:22;;;;;;;13.93;4.40;;;13.00;99.90;;;;;;5001793;28;20047;-58
2022/06/14 06:15:02;;;;;;;11.15;4.30;;;13.10;99.90;;;;;;5002977;28;20490;-58
2022/06/14 06:17:33;;;;;;;11.98;3.92;;;13.10;99.90;;;;;;5001434;28;20054;-59
2022/06/14 06:20:15;;;;;;;9.73;4.40;;;13.30;99.90;;;;;;5002599;28;20184;-59
2022/06/14 06:22:57;;;;;;;12.57;5.53;;;13.30;99.90;;;;;;5013941;28;20605;-58
2022/06/14 06:25:28;;;;;;;16.58;4.50;;;13.70;99.90;;;;;;5020798;28;20054;-59
2022/06/14 06:28:06;;;;;;;12.23;4.47;;;13.80;99.90;;;;;;5005085;28;20545;-59
2022/06/14 06:30:51;;;;;;;11.77;4.15;;;13.70;99.90;;;;;;5020900;28;20042;-58
2022/06/14 06:33:20;;;;;;;10.80;3.65;;;13.90;99.90;;;;;;5021434;28;20531;-59
2022/06/14 06:36:03;;;;;;;11.40;3.63;;;13.90;99.90;;;;;;5022464;28;20050;-59
2022/06/14 06:38:54;;;;;;;12.57;4.28;;;13.90;99.90;;;;;;5020426;28;20117;-59
2022/06/14 06:44:46;;;;;;;11.93;4.03;;;14.00;99.90;;;;;;5021853;28;20324;-59
2022/06/14 06:47:29;;;;;;;13.40;4.45;;;14.20;99.90;;;;;;5020464;28;20094;-59
2022/06/14 06:50:05;;;;;;;8.93;3.55;;;14.40;99.90;;;;;;5021794;28;20081;-59
2022/06/14 06:53:06;;;;;;;10.43;2.80;;;14.40;99.90;;;;;;5021570;28;20050;-59
2022/06/14 06:55:48;;;;;;;9.30;2.77;;;14.50;99.90;;;;;;5020240;28;20041;-59
2022/06/14 06:58:46;;;;;;;10.40;2.90;;;14.60;99.90;;;;;;5021785;28;20054;-60
2022/06/14 07:01:19;;;;;;;8.50;2.80;;;14.60;99.90;;;;;;5021765;28;20041;-59
2022/06/14 07:04:14;;;;;;;13.27;2.88;;;14.80;99.90;;;;;;5020307;28;20085;-59
2022/06/14 07:06:45;;;;;;;9.48;2.33;;;14.90;99.90;;;;;;5021591;28;20045;-60
2022/06/14 07:09:21;;;;;;;10.85;2.65;;;15.10;99.90;;;;;;5020467;28;20104;-60
2022/06/14 07:11:46;;;;;;;8.55;2.45;;;15.10;99.90;;;;;;5021060;28;20042;-59
2022/06/14 07:14:23;;;;;;;8.50;2.40;;;15.10;99.90;;;;;;5021372;28;20100;-58
2022/06/14 07:17:02;;;;;;;6.97;2.40;;;15.10;99.90;;;;;;5019795;28;20058;-59
2022/06/14 07:19:41;;;;;;;7.88;1.80;;;15.20;99.90;;;;;;5021041;28;20073;-59
2022/06/14 07:22:13;;;;;;;8.50;1.92;;;15.20;99.90;;;;;;5020265;28;20075;-58
2022/06/14 07:24:59;;;;;;;11.57;3.88;;;15.30;99.90;;;;;;5020654;28;20041;-58
2022/06/14 07:27:34;;;;;;;6.55;2.03;;;15.20;99.90;;;;;;5021352;28;20057;-59
2022/06/14 07:30:13;;;;;;;10.00;2.10;;;15.20;99.90;;;;;;5001748;28;20054;-59
2022/06/14 07:32:52;;;;;;;6.45;1.70;;;15.20;99.90;;;;;;5021565;28;20053;-59
2022/06/14 07:35:31;;;;;;;7.80;1.85;;;15.20;99.90;;;;;;5020683;28;20089;-59
2022/06/14 07:38:02;;;;;;;7.50;2.00;;;15.30;99.90;;;;;;5019716;28;20042;-59
2022/06/14 07:40:34;;;;;;;9.37;1.83;;;15.40;99.90;;;;;;5021388;28;20049;-59
2022/06/14 07:43:11;;;;;;;7.55;2.00;;;15.50;99.90;;;;;;5019429;28;20049;-59
2022/06/14 07:45:40;;;;;;;6.85;2.10;;;15.60;99.90;;;;;;5020545;28;20050;-58
2022/06/14 07:48:24;;;;;;;11.45;1.90;;;15.60;99.90;;;;;;5020346;28;20057;-60
2022/06/14 07:50:55;;;;;;;7.13;1.77;;;15.50;99.90;;;;;;5019249;28;20498;-60
2022/06/14 07:53:39;;;;;;;4.95;1.75;;;15.50;99.90;;;;;;5021115;28;20061;-59
2022/06/14 07:56:29;;;;;;;7.40;2.03;;;15.60;99.90;;;;;;5019429;28;20057;-59
2022/06/14 07:59:07;;;;;;;6.32;1.65;;;15.90;99.90;;;;;;5019940;28;20053;-59
2022/06/14 08:01:59;;;;;;;6.18;1.77;;;16.00;99.90;;;;;;5021042;28;20106;-59
2022/06/14 08:04:34;;;;;;;6.35;1.83;;;15.90;99.90;;;;;;5018947;28;20053;-59
2022/06/14 08:07:07;;;;;;;7.05;2.63;;;15.70;99.90;;;;;;5020419;28;20034;-60
2022/06/14 08:09:51;;;;;;;8.27;2.10;;;15.80;99.90;;;;;;5020019;28;20057;-58
2022/06/14 08:12:32;;;;;;;7.22;2.28;;;15.90;99.90;;;;;;5019142;28;20100;-59
2022/06/14 08:15:03;;;;;;;8.48;1.83;;;16.30;99.90;;;;;;5020490;28;20050;-59
2022/06/14 08:17:46;;;;;;;7.00;2.10;;;16.40;99.90;;;;;;5018957;28;20050;-58
2022/06/14 08:20:30;;;;;;;6.65;2.00;;;16.40;99.90;;;;;;5001787;28;20117;-59
2022/06/14 08:23:03;;;;;;;6.65;1.70;;;16.30;99.90;;;;;;5020435;28;20061;-59
2022/06/14 08:25:35;;;;;;;5.57;1.50;;;16.20;99.90;;;;;;5018725;28;20100;-59
2022/06/14 08:28:25;;;;;;;5.55;1.38;;;16.00;99.90;;;;;;5020382;28;20068;-60
2022/06/14 08:31:12;;;;;;;6.32;1.95;;;15.80;99.90;;;;;;5018643;28;20049;-60
2022/06/14 08:33:45;;;;;;;6.63;1.80;;;16.00;99.90;;;;;;5018888;28;20053;-59
2022/06/14 08:36:17;;;;;;;6.07;2.00;;;16.40;99.90;;;;;;5020203;28;20042;-59
2022/06/14 08:38:57;;;;;;;8.18;1.50;;;16.20;99.90;;;;;;5018624;28;20040;-60
2022/06/14 08:41:45;;;;;;;5.50;1.60;;;16.00;99.90;;;;;;5019576;28;20112;-59
2022/06/14 08:44:16;;;;;;;7.47;1.80;;;16.20;99.90;;;;;;4993728;28;20050;-59
2022/06/14 08:47:04;;;;;;;5.00;1.40;;;16.70;99.90;;;;;;5018230;28;20053;-59
2022/06/14 08:49:58;;;;;;;5.55;1.50;;;16.80;99.90;;;;;;5020095;28;20080;-59
2022/06/14 08:52:43;;;;;;;5.22;1.73;;;16.90;99.90;;;;;;5004176;28;20045;-59
2022/06/14 08:55:42;;;;;;;7.75;2.00;;;17.00;99.90;;;;;;5018186;28;20133;-60
2022/06/14 08:58:11;;;;;;;6.60;1.88;;;17.00;99.90;;;;;;5020153;28;20041;-60
2022/06/14 09:01:34;;;;;;;6.10;1.83;;;17.20;99.90;;;;;;5000948;28;20471;-59
2022/06/14 09:04:24;;;;;;;8.45;2.30;;;17.20;99.90;;;;;;4903203;29;20047;-59
2022/06/14 09:07:11;;;;;;;5.53;1.77;;;17.20;99.90;;;;;;4920572;29;20563;-59
2022/06/14 09:09:36;;;;;;;8.88;2.03;;;17.30;99.90;;;;;;4996099;28;20112;-59
2022/06/14 09:12:34;;;;;;;7.75;2.30;;;17.10;99.90;;;;;;5018500;28;20449;-59
2022/06/14 09:15:28;;;;;;;8.48;2.10;;;17.00;99.90;;;;;;4998389;28;20060;-59
2022/06/14 09:18:02;;;;;;;7.53;1.90;;;16.80;99.90;;;;;;5018633;28;20105;-59
2022/06/14 09:20:33;;;;;;;7.38;2.30;;;16.90;99.90;;;;;;5018163;28;20086;-60
2022/06/14 09:23:19;;;;;;;7.43;2.40;;;16.70;99.90;;;;;;5019576;28;20057;-59
2022/06/14 09:26:02;;;;;;;9.88;2.70;;;16.60;99.90;;;;;;5017663;28;20169;-59
2022/06/14 09:28:40;;;;;;;7.25;2.13;;;16.50;99.90;;;;;;5019172;28;20049;-59
2022/06/14 09:31:21;;;;;;;8.07;2.10;;;16.60;99.90;;;;;;5019170;28;20046;-59
2022/06/14 09:34:13;;;;;;;6.05;2.13;;;17.10;99.90;;;;;;5017985;28;20046;-59
2022/06/14 09:36:53;;;;;;;8.30;2.53;;;17.40;99.90;;;;;;5003414;28;20046;-59
2022/06/14 09:39:57;;;;;;;5.20;1.98;;;17.70;99.90;;;;;;5018632;28;20050;-60
2022/06/14 09:42:41;;;;;;;7.85;2.17;;;17.90;99.90;;;;;;5020733;28;20054;-60
2022/06/14 09:45:33;;;;;;;7.97;1.90;;;17.80;99.90;;;;;;5023215;28;20104;-59
2022/06/14 09:48:16;;;;;;;;;;;17.90;99.90;;;;;;5022895;28;20042;-59
2022/06/14 09:51:06;;;;;;;6.68;1.85;;;17.60;99.90;;;;;;5021614;28;20005;-60
2022/06/14 09:53:31;;;;;;;7.18;1.90;;;17.50;99.90;;;;;;5023470;28;20103;-59
2022/06/14 09:56:34;;;;;;;8.43;2.53;;;17.30;99.90;;;;;;5021570;28;20445;-59
2022/06/14 09:59:24;;;;;;;7.80;2.20;;;17.10;99.90;;;;;;5022161;28;20038;-59
2022/06/14 10:01:52;;;;;;;8.55;2.10;;;16.70;99.90;;;;;;5023320;28;20412;-59
2022/06/14 10:04:30;;;;;;;8.68;2.50;;;16.60;99.90;;;;;;5021397;28;20050;-60
2022/06/14 10:07:40;;;;;;;6.75;1.98;;;16.50;99.90;;;;;;5022718;28;20501;-60
2022/06/14 10:10:31;;;;;;;7.93;2.05;;;16.30;99.90;;;;;;5022821;28;20132;-59
2022/06/14 10:13:06;;;;;;;7.25;1.98;;;16.20;99.90;;;;;;5021009;28;20080;-60
2022/06/14 10:15:48;;;;;;;6.28;2.53;;;16.10;99.90;;;;;;5022323;28;20049;-60
2022/06/14 10:18:37;;;;;;;7.35;2.35;;;16.10;99.90;;;;;;5022169;28;20592;-59
2022/06/14 10:21:19;;;;;;;7.25;2.60;;;16.10;99.90;;;;;;5020609;28;20050;-59
2022/06/14 10:24:00;;;;;;;7.60;2.15;;;16.10;99.90;;;;;;5003186;28;20042;-60
2022/06/14 10:29:26;;;;;;;7.13;2.20;;;16.30;99.90;;;;;;5001348;28;20061;-60
2022/06/14 10:32:20;;;;;;;7.75;2.60;;;16.40;99.90;;;;;;5003084;28;20042;-60
2022/06/14 10:35:06;;;;;;;8.82;3.10;;;16.50;99.90;;;;;;5001638;28;20053;-60
2022/06/14 10:38:08;;;;;;;7.53;2.85;;;16.50;99.90;;;;;;5001799;28;20058;-60
2022/06/14 10:40:35;;;;;;;;;;;16.50;99.90;;;;;;5003451;28;20509;-60
2022/06/14 10:43:26;;;;;;;7.65;2.47;;;16.60;99.90;;;;;;5001043;28;19925;-60
2022/06/14 10:45:57;;;;;;;7.63;2.42;;;16.50;99.90;;;;;;5001956;28;20045;-59
2022/06/14 10:48:46;;;;;;;7.30;2.85;;;16.50;99.90;;;;;;5002164;28;20050;-59
2022/06/14 10:51:36;;;;;;;8.23;2.67;;;16.60;99.90;;;;;;4971468;28;20051;-59
2022/06/14 10:54:21;;;;;;;8.50;2.78;;;16.70;99.90;;;;;;5001591;28;20101;-59
2022/06/14 10:56:53;;;;;;;6.35;2.53;;;16.80;99.90;;;;;;5002004;28;20077;-58
2022/06/14 10:59:42;;;;;;;8.07;2.50;;;17.10;99.90;;;;;;5000983;28;20390;-59
2022/06/14 11:02:36;;;;;;;7.22;2.35;;;17.00;99.90;;;;;;4972880;28;20108;-60
2022/06/14 11:05:21;;;;;;;6.00;2.42;;;17.30;99.90;;;;;;5001452;28;20400;-60
2022/06/14 11:08:05;;;;;;;8.52;2.80;;;17.50;99.90;;;;;;4983243;28;20101;-60
2022/06/14 11:11:03;;;;;;;9.15;2.80;;;17.50;99.90;;;;;;5002160;28;20467;-59
2022/06/14 11:13:47;;;;;;;5.15;1.73;;;17.50;99.90;;;;;;5000619;28;20074;-59
2022/06/14 11:16:20;;;;;;;9.05;2.30;;;17.60;99.90;;;;;;5000970;28;20402;-59
2022/06/14 11:19:13;;;;;;;5.40;2.05;;;17.70;99.90;;;;;;5002094;28;20042;-59
2022/06/14 11:21:45;;;;;;;7.70;2.15;;;17.90;99.90;;;;;;5003193;28;20507;-60
2022/06/14 11:24:49;;;;;;;5.35;1.90;;;17.60;99.90;;;;;;5021081;28;20065;-60
2022/06/14 11:27:32;;;;;;;6.72;2.30;;;17.60;99.90;;;;;;4922256;29;20059;-60
2022/06/14 11:30:27;;;;;;;6.57;2.35;;;17.80;99.90;;;;;;4920497;29;20056;-60
2022/06/14 11:33:22;;;;;;;6.65;2.15;;;18.10;99.90;;;;;;4999321;28;20515;-60
2022/06/14 11:36:06;;;;;;;7.63;2.10;;;18.30;99.90;;;;;;5021558;28;20398;-59
2022/06/14 11:39:00;;;;;;;8.10;2.30;;;18.30;99.90;;;;;;5019337;28;20053;-58
2022/06/14 11:41:28;;;;;;;6.88;2.15;;;18.80;99.90;;;;;;5020794;28;20081;-59
2022/06/14 11:44:12;;;;;;;6.90;1.75;;;18.30;99.90;;;;;;5002968;28;20065;-58
2022/06/14 11:47:02;;;;;;;7.85;2.63;;;18.30;99.90;;;;;;5019569;28;20053;-59
2022/06/14 11:49:37;;;;;;;7.75;2.63;;;18.60;99.90;;;;;;5020918;28;20097;-59
2022/06/14 11:52:05;;;;;;;6.68;2.25;;;18.60;99.90;;;;;;5019897;28;20046;-59
2022/06/14 11:54:41;;;;;;;5.55;2.00;;;18.60;99.90;;;;;;5020114;28;20045;-59
2022/06/14 11:57:25;;;;;;;6.10;1.88;;;18.70;99.90;;;;;;5021100;28;20053;-60
2022/06/14 12:00:18;;;;;;;8.52;2.30;;;18.70;99.90;;;;;;5018977;28;20042;-59
2022/06/14 12:03:02;;;;;;;5.72;2.10;;;18.80;99.90;;;;;;4975250;28;20105;-60
2022/06/14 12:05:44;;;;;;;8.60;2.20;;;18.80;99.90;;;;;;5020532;28;20053;-59
2022/06/14 12:08:30;;;;;;;7.50;2.00;;;19.30;99.90;;;;;;5001062;28;20061;-59
2022/06/14 12:11:07;;;;;;;9.57;2.45;;;19.50;99.90;;;;;;5020653;28;20081;-60
2022/06/14 12:14:20;;;;;;;9.68;2.00;;;19.00;99.90;;;;;;5019354;28;20037;-59
2022/06/14 12:16:59;;;;;;;5.53;2.13;;;19.20;99.90;;;;;;5018846;28;20038;-60
2022/06/14 12:19:31;;;;;;;7.15;2.10;;;19.10;99.90;;;;;;5020546;28;20133;-61
2022/06/14 12:22:28;;;;;;;8.35;2.13;;;18.80;99.90;;;;;;4980129;28;20059;-58
2022/06/14 12:27:53;;;;;;;7.70;2.88;;;18.70;99.90;;;;;;4979977;28;20597;-59
2022/06/14 12:30:19;;;;;;;;;;;18.40;99.90;;;;;;4980449;28;20046;-59
2022/06/14 12:32:55;;;;;;;8.35;2.40;;;18.30;99.90;;;;;;4980920;28;19973;-60
2022/06/14 12:35:30;;;;;;;6.47;2.60;;;18.20;99.90;;;;;;4980731;28;20083;-59
2022/06/14 12:38:01;;;;;;;7.00;2.42;;;18.00;99.90;;;;;;4979544;28;20050;-60
2022/06/14 12:40:36;;;;;;;;;;;17.70;99.90;;;;;;4981767;28;20105;-59
2022/06/14 12:43:10;;;;;;;6.90;2.00;;;17.80;99.90;;;;;;4979361;28;19925;-59
2022/06/14 12:45:44;;;;;;;10.55;2.28;;;17.80;99.90;;;;;;4980370;28;20109;-59
2022/06/14 12:48:28;;;;;;;5.68;1.80;;;17.80;99.90;;;;;;4980541;28;20050;-59
2022/06/14 12:51:08;;;;;;;5.03;1.80;;;17.70;99.90;;;;;;4979256;28;20480;-59
2022/06/14 12:53:52;;;;;;;5.60;2.03;;;17.70;99.90;;;;;;4980976;28;20113;-56
2022/06/14 12:56:38;;;;;;;8.35;2.05;;;17.60;99.90;;;;;;4979988;28;20066;-59
2022/06/14 12:59:41;;;;;;;7.30;2.50;;;17.70;99.90;;;;;;4979513;28;20125;-60
2022/06/14 13:02:19;;;;;;;8.30;2.25;;;17.80;99.90;;;;;;4981006;28;20050;-59
2022/06/14 13:05:04;;;;;;;8.02;2.47;;;18.10;99.90;;;;;;4979539;28;20148;-59
2022/06/14 13:07:47;;;;;;;7.00;2.13;;;18.40;99.90;;;;;;4979882;28;20093;-59
2022/06/14 13:10:39;;;;;;;6.90;1.67;;;18.40;99.90;;;;;;4980852;28;20051;-60
2022/06/14 13:13:21;;;;;;;;;;;18.20;99.90;;;;;;4979607;28;20078;-59
2022/06/14 13:15:56;;;;;;;5.90;2.22;;;18.40;99.90;;;;;;4981603;28;19922;-60
2022/06/14 13:18:33;;;;;;;5.82;2.38;;;18.60;99.90;;;;;;4986996;28;20055;-59
2022/06/14 13:21:21;;;;;;;7.80;2.03;;;18.70;99.90;;;;;;5009666;28;20060;-60
2022/06/14 13:24:11;;;;;;;6.80;2.53;;;18.60;99.90;;;;;;5006242;28;20058;-60
2022/06/14 13:27:14;;;;;;;8.13;2.85;;;18.60;99.90;;;;;;5006104;28;20043;-60
2022/06/14 13:30:05;;;;;;;7.28;2.50;;;18.60;99.90;;;;;;5004748;28;20069;-60
2022/06/14 13:32:35;;;;;;;7.05;2.33;;;18.70;99.90;;;;;;5006488;28;20050;-60
2022/06/14 13:35:32;;;;;;;6.15;3.05;;;18.90;99.90;;;;;;5005683;28;20097;-60
2022/06/14 13:38:00;;;;;;;10.65;3.33;;;19.00;99.90;;;;;;5004963;28;20093;-59
2022/06/14 13:40:34;;;;;;;6.70;3.25;;;18.80;99.90;;;;;;5006474;28;20140;-60
2022/06/14 13:43:19;;;;;;;7.72;3.25;;;18.90;99.90;;;;;;5004875;28;20046;-59
2022/06/14 13:46:02;;;;;;;8.52;3.10;;;19.00;99.90;;;;;;5005655;28;20046;-60
2022/06/14 13:48:46;;;;;;;6.93;3.40;;;19.10;99.90;;;;;;5006308;28;20042;-59
2022/06/14 13:51:18;;;;;;;8.15;3.28;;;19.20;99.90;;;;;;4987033;28;20101;-60
2022/06/14 13:53:51;;;;;;;;;;;19.30;99.90;;;;;;5006929;28;20050;-60
2022/06/14 13:56:24;;;;;;;9.48;3.72;;;18.90;99.90;;;;;;5005325;28;19929;-59
2022/06/14 13:58:56;;;;;;;8.70;3.50;;;19.20;99.90;;;;;;5005414;28;20046;-61
2022/06/14 14:01:45;;;;;;;8.60;3.30;;;19.10;99.90;;;;;;5006043;28;20046;-60
2022/06/14 14:04:49;;;;;;;9.45;3.63;;;19.20;99.90;;;;;;5004384;28;20042;-60
2022/06/14 14:07:37;;;;;;;6.90;3.50;;;19.20;99.90;;;;;;4994622;28;20054;-60